WEATHER DATA

YESTERDAY
Time Temp. Dewp. Hum. Bar.
00:09 23.6 19.1 76 1021.1
00:20 23.5 19 76 1021.2
00:30 23.5 19.2 77 1021.2
00:50 23.4 18.9 76 1021.3
01:00 23.4 18.9 76 1021.3
01:10 23.3 18.8 76 1021.3
01:19 23.3 19 77 1021.3
01:30 23.3 19 77 1021.3
01:50 23.3 19.2 78 1021.3
02:00 23.3 19.2 78 1021.3
02:10 23.3 19.2 78 1021.3
02:20 23.3 19.2 78 1021.3
02:30 23.2 18.9 77 1021.2
02:51 23.2 18.9 77 1021.3
03:00 23.2 18.9 77 1021.2
03:11 23.2 18.9 77 1021
03:31 23.1 18.6 76 1020.9
03:51 23.1 18.6 76 1020.7
04:01 23.1 18.8 77 1020.6
04:11 23.1 18.8 77 1020.6
04:21 23 18.5 76 1020.6
04:31 23 18.5 76 1020.5
04:41 23 18.5 76 1020.5
04:51 23 18.3 75 1020.6
05:02 23 18.3 75 1020.6
05:12 22.9 18.2 75 1020.7
05:21 22.9 18.2 75 1020.7
05:31 22.9 18.2 75 1020.8
05:42 22.8 18.1 75 1021
05:52 22.8 18.1 75 1020.9
06:01 22.8 18.1 75 1021
06:12 22.8 17.9 74 1021.1
06:22 22.7 17.8 74 1021
06:42 22.6 17.9 75 1021
06:52 22.6 17.7 74 1020.9
07:02 22.5 17.6 74 1020.9
07:12 22.5 17.6 74 1020.9
07:23 22.5 17.6 74 1021.2
07:33 22.4 17.5 74 1021.2
07:42 22.4 17.5 74 1021.3
07:52 22.4 17.5 74 1021.5
08:03 22.4 17.5 74 1021.5
08:13 22.4 17.8 75 1021.6
08:22 22.4 17.8 75 1021.7
08:33 22.5 18.1 76 1021.8
08:43 22.6 17.9 75 1022
08:53 22.6 18.2 76 1022.1
09:03 22.6 18.2 76 1022.2
09:13 22.6 18.2 76 1022.3
09:23 22.7 18.5 77 1022.3
09:33 22.8 18.6 77 1022.5
09:44 22.9 18.9 78 1022.6
09:54 22.9 18.7 77 1022.6
10:01 23 18.8 77 1022.6
10:10 23 18.8 77 1022.7
10:20 23.1 18.8 77 1022.7
10:31 23.1 18.8 77 1022.7
10:51 23.2 18.9 77 1022.8
11:00 23.3 19 77 1022.9
11:11 23.3 19.2 78 1023
11:21 23.3 19 77 1023
11:31 23.4 19.3 78 1023
11:51 24 19.7 77 1023
12:01 24.1 19.8 77 1023.1
12:11 24.3 19.8 76 1023.3
12:22 24.5 20 76 1023.3
12:32 24.6 20.1 76 1023.4
12:41 24.5 20 76 1023.4
13:02 24.5 20.2 77 1023.5
13:12 24.7 20.2 76 1023.5
13:21 24.7 20.2 76 1023.5
13:32 24.7 20 75 1023.5
13:42 24.8 20.3 76 1023.4
13:52 24.8 20.5 77 1023.5
14:02 24.9 21 79 1023.4
14:12 24.8 20.3 76 1023.4
14:22 24.7 20.2 76 1023.4
14:32 24.6 20.1 76 1023.4
14:43 24.5 20 76 1023.3
14:53 24.5 20 76 1023.3
15:02 24.4 19.9 76 1023.2
15:13 24.4 19.9 76 1023.2
15:23 24.4 19.9 76 1023.2
15:33 24.3 19.8 76 1023.1
15:42 24.3 19.8 76 1023
15:53 24.3 20 77 1023.1
16:03 24.3 20 77 1023.1
16:13 24.3 19.8 76 1023.1
16:23 24.4 19.7 75 1023
16:33 24.4 19.7 75 1022.9
16:43 24.5 19.8 75 1022.8
16:53 24.6 19.4 73 1022.7
17:04 24.8 19.6 73 1022.6
17:14 24.8 19.4 72 1022.6
17:23 24.8 19.6 73 1022.5
17:34 24.9 19.7 73 1022.4
17:44 24.9 19.7 73 1022.4
17:54 24.8 19.4 72 1022.4
18:04 24.8 19.6 73 1022.4
18:14 24.8 19.6 73 1022.4
18:24 24.8 19.4 72 1022.3
18:34 24.8 19.6 73 1022.2
18:44 24.9 19.5 72 1022
18:54 25 19.8 73 1022.1
19:04 25 19.8 73 1022.1
19:14 25 19.8 73 1022.1
19:25 25 19.8 73 1022.2
19:35 25 19.8 73 1022.1
19:44 24.9 19.9 74 1022.2
19:55 24.9 19.7 73 1022.3
20:05 24.8 19.9 74 1022.3
20:15 24.8 19.9 74 1022.4
20:25 24.7 19.8 74 1022.5
20:45 24.6 19.9 75 1022.5
20:55 24.6 19.9 75 1022.5
21:05 24.5 20 76 1022.6
21:15 24.5 20 76 1022.8
21:25 24.4 19.7 75 1022.8
21:35 24.4 19.9 76 1022.9
21:46 24.3 19.8 76 1023
21:56 24.3 19.8 76 1023.2
22:05 24.2 19.7 76 1023.3
22:16 24.2 19.9 77 1023.4
22:26 24.2 19.9 77 1023.4
22:36 24.2 19.9 77 1023.5
22:46 24.4 19.9 76 1023.6
22:56 24.3 19.8 76 1023.6
23:06 24.3 19.8 76 1023.6
23:16 24.2 19.7 76 1023.7
23:26 24.1 19.6 76 1023.9
23:46 24 19.5 76 1024.3

DAY STATISTIC

2020-07-02
TEMPERATURE
AVERAGE
23.8
HIGH
25.0
18:54
LOW
22.4
07:33
PRESSURE
AVERAGE
1022.3
HIGH
1024.3
23:46
LOW
1020.5
04:31
DEWPOINT
AVERAGE
19.2
HIGH
21.0
14:02
LOW
17.5
07:33
HUMIDITY
AVERAGE
76
HIGH
79
14:02
LOW
72
17:14
TEMPERATURE (°C)
LOW
22.4
HIGH
25.0
AVERAGE
23.8
PRESSURE (hpa)
LOW
1020.5
HIGH
1024.3
AVERAGE
1022.3
DEVICE